Time;durP1;ratioP1;P1;durP2;ratioP2;P2;SDS_P1;SDS_P2;PMS_P1;PMS_P2;Temp;Humidity;BMP_temperature;BMP_pressure;BME280_temperature;BME280_humidity;BME280_pressure;Samples;Min_cycle;Max_cycle;Signal;HPM_P1;HPM_P2
2023/10/18 00:02:49;;;;;;;74.10;57.28;;;7.30;99.90;;;;;;5089055;28;20172;-79
2023/10/18 00:05:20;;;;;;;81.00;67.47;;;7.40;99.90;;;;;;5089936;28;20157;-79
2023/10/18 00:07:46;;;;;;;74.88;49.33;;;7.40;99.90;;;;;;5087144;28;20145;-80
2023/10/18 00:10:12;;;;;;;80.50;60.07;;;7.40;99.90;;;;;;5069834;28;20174;-79
2023/10/18 00:12:39;;;;;;;73.60;59.80;;;7.30;99.90;;;;;;5087267;28;20421;-79
2023/10/18 00:15:06;;;;;;;83.28;68.82;;;7.30;99.90;;;;;;5087088;28;20399;-80
2023/10/18 00:17:32;;;;;;;80.25;63.42;;;7.20;99.90;;;;;;5087054;28;20192;-79
2023/10/18 00:19:58;;;;;;;74.53;55.42;;;7.20;99.90;;;;;;5068776;28;20164;-80
2023/10/18 00:22:24;;;;;;;80.93;49.67;;;7.20;99.90;;;;;;5086740;28;20182;-79
2023/10/18 00:24:50;;;;;;;72.30;50.67;;;7.20;99.90;;;;;;5087333;28;20562;-80
2023/10/18 00:27:15;;;;;;;73.27;56.60;;;7.20;99.90;;;;;;5087366;28;20418;-80
2023/10/18 00:29:43;;;;;;;75.20;56.00;;;7.20;99.90;;;;;;5069224;28;20244;-80
2023/10/18 00:32:09;;;;;;;75.45;57.75;;;7.20;99.90;;;;;;5087220;28;20184;-79
2023/10/18 00:34:35;;;;;;;76.00;59.92;;;7.20;99.90;;;;;;5087101;28;20184;-80
2023/10/18 00:37:01;;;;;;;80.67;64.23;;;7.20;99.90;;;;;;5086784;28;20184;-80
2023/10/18 00:39:27;;;;;;;75.22;59.53;;;7.20;99.90;;;;;;5068746;28;20164;-80
2023/10/18 00:41:58;;;;;;;73.07;52.10;;;7.30;99.90;;;;;;5087268;28;20194;-79
2023/10/18 00:44:24;;;;;;;73.68;57.25;;;7.30;99.90;;;;;;5086737;28;20403;-80
2023/10/18 00:46:52;;;;;;;74.33;55.37;;;7.30;99.90;;;;;;5086528;28;20174;-80
2023/10/18 00:49:20;;;;;;;74.85;54.58;;;7.30;99.90;;;;;;5068916;28;20239;-80
2023/10/18 00:51:47;;;;;;;76.80;56.55;;;7.20;99.90;;;;;;5085622;28;20164;-79
2023/10/18 00:54:14;;;;;;;78.40;57.15;;;7.20;99.90;;;;;;5067016;28;20170;-79
2023/10/18 00:56:41;;;;;;;75.70;62.83;;;7.20;99.90;;;;;;5084606;28;20195;-79
2023/10/18 00:59:13;;;;;;;79.03;62.03;;;7.20;99.90;;;;;;5085216;28;20213;-79
2023/10/18 01:01:43;;;;;;;73.18;53.58;;;7.20;99.90;;;;;;5084595;28;20149;-79
2023/10/18 01:04:12;;;;;;;81.25;63.47;;;7.20;99.90;;;;;;5084880;28;20188;-79
2023/10/18 01:06:41;;;;;;;75.18;62.33;;;7.20;99.90;;;;;;5084432;28;20187;-79
2023/10/18 01:09:15;;;;;;;80.05;54.58;;;7.30;98.80;;;;;;5068846;28;20638;-79
2023/10/18 01:11:41;;;;;;;74.07;50.80;;;7.20;97.50;;;;;;5070502;28;20164;-79
2023/10/18 01:14:07;;;;;;;70.85;45.95;;;7.20;98.50;;;;;;5088105;28;20195;-80
2023/10/18 01:16:36;;;;;;;76.93;58.80;;;7.20;97.60;;;;;;5088518;28;20184;-79
2023/10/18 01:19:05;;;;;;;73.80;59.67;;;7.20;99.10;;;;;;5070604;28;20188;-79
2023/10/18 01:21:33;;;;;;;75.47;55.40;;;7.20;98.10;;;;;;5069862;28;20164;-79
2023/10/18 01:24:04;;;;;;;75.22;56.20;;;7.20;99.50;;;;;;5088581;28;20283;-79
2023/10/18 01:26:32;;;;;;;79.03;58.42;;;7.20;97.10;;;;;;5088009;28;20175;-79
2023/10/18 01:29:03;;;;;;;72.53;53.17;;;7.20;95.90;;;;;;5089235;28;20165;-79
2023/10/18 01:31:29;;;;;;;72.78;51.28;;;7.20;95.60;;;;;;5071029;28;20164;-79
2023/10/18 01:33:55;;;;;;;72.23;50.53;;;7.10;96.80;;;;;;5088464;28;20195;-80
2023/10/18 01:36:21;;;;;;;71.63;52.67;;;7.00;99.40;;;;;;5088502;28;20446;-79
2023/10/18 01:38:52;;;;;;;79.85;57.15;;;7.00;99.90;;;;;;5091293;28;20175;-79
2023/10/18 01:44:07;;;;;;;79.68;52.65;;;7.00;99.90;;;;;;5090089;28;20184;-80
2023/10/18 01:46:48;;;;;;;73.20;52.33;;;7.00;99.80;;;;;;5090750;28;20286;-80
2023/10/18 01:49:16;;;;;;;70.03;51.60;;;7.10;99.90;;;;;;5090140;28;20145;-80
2023/10/18 01:51:44;;;;;;;70.63;50.95;;;7.10;97.70;;;;;;5090321;28;20164;-80
2023/10/18 01:54:13;;;;;;;74.18;55.78;;;7.10;98.00;;;;;;5090121;28;20286;-80
2023/10/18 01:56:46;;;;;;;79.80;57.17;;;7.00;97.90;;;;;;5089723;28;20218;-80
2023/10/18 01:59:17;;;;;;;74.60;54.08;;;7.00;99.20;;;;;;5089525;28;20168;-80
2023/10/18 02:01:51;;;;;;;73.88;56.92;;;7.00;99.50;;;;;;5072122;28;20172;-80
2023/10/18 02:04:24;;;;;;;77.75;64.25;;;7.00;99.90;;;;;;5090428;28;20261;-80
2023/10/18 02:06:51;;;;;;;74.80;60.78;;;6.90;99.90;;;;;;5090431;28;20141;-80
2023/10/18 02:09:17;;;;;;;75.60;51.10;;;6.90;99.90;;;;;;5089526;28;20247;-80
2023/10/18 02:11:43;;;;;;;72.23;55.33;;;6.90;99.90;;;;;;5089683;28;20545;-80
2023/10/18 02:14:10;;;;;;;77.88;54.42;;;6.90;99.90;;;;;;5072467;28;20460;-80
2023/10/18 02:16:36;;;;;;;72.85;53.95;;;7.00;99.90;;;;;;5089524;28;20192;-80
2023/10/18 02:19:01;;;;;;;73.77;53.07;;;7.00;98.90;;;;;;5089875;28;20191;-80
2023/10/18 02:21:27;;;;;;;73.83;53.93;;;7.00;99.00;;;;;;5089868;28;20503;-80
2023/10/18 02:23:53;;;;;;;71.67;56.97;;;7.00;97.90;;;;;;5089122;28;20472;-80
2023/10/18 02:26:31;;;;;;;71.43;49.30;;;7.00;97.40;;;;;;5089564;28;20410;-79
2023/10/18 02:29:05;;;;;;;71.63;49.25;;;7.00;96.30;;;;;;5087164;28;20191;-79
2023/10/18 02:31:33;;;;;;;73.10;52.05;;;7.10;97.60;;;;;;5087415;28;20194;-79
2023/10/18 02:34:03;;;;;;;71.90;47.17;;;7.00;95.70;;;;;;5087652;28;20251;-79
2023/10/18 02:36:32;;;;;;;77.20;59.75;;;7.00;95.30;;;;;;5069484;28;20209;-80
2023/10/18 02:38:59;;;;;;;75.85;54.10;;;7.00;95.00;;;;;;5087906;28;20161;-80
2023/10/18 02:41:28;;;;;;;69.63;46.17;;;7.10;94.70;;;;;;5087361;28;20560;-79
2023/10/18 02:43:55;;;;;;;73.53;56.28;;;7.00;92.80;;;;;;5086994;28;20200;-79
2023/10/18 02:46:24;;;;;;;71.68;52.70;;;7.00;92.80;;;;;;5087319;28;20179;-79
2023/10/18 02:49:00;;;;;;;74.60;52.38;;;7.00;92.70;;;;;;5086950;28;20628;-79
2023/10/18 02:51:28;;;;;;;74.80;52.72;;;7.10;90.60;;;;;;5087304;28;20216;-79
2023/10/18 02:54:07;;;;;;;72.43;50.30;;;7.10;89.80;;;;;;5087054;28;20218;-79
2023/10/18 02:56:37;;;;;;;76.32;48.42;;;7.10;90.60;;;;;;5087414;28;20180;-79
2023/10/18 02:59:09;;;;;;;67.47;44.95;;;7.10;92.20;;;;;;5087541;28;20176;-79
2023/10/18 03:01:39;;;;;;;75.85;45.92;;;7.10;88.50;;;;;;5087122;28;20506;-80
2023/10/18 03:04:08;;;;;;;74.65;46.95;;;7.10;87.70;;;;;;5086900;28;20189;-79
2023/10/18 03:06:34;;;;;;;68.95;49.17;;;7.10;88.90;;;;;;5086950;28;20161;-79
2023/10/18 03:09:00;;;;;;;70.97;51.53;;;7.10;83.40;;;;;;5086326;28;20184;-79
2023/10/18 03:11:27;;;;;;;73.72;52.45;;;7.10;84.80;;;;;;5087111;28;20160;-79
2023/10/18 03:13:57;;;;;;;71.32;53.17;;;7.10;83.10;;;;;;5086886;28;20181;-79
2023/10/18 03:16:38;;;;;;;70.63;47.03;;;7.10;85.00;;;;;;5090289;28;20183;-80
2023/10/18 03:19:12;;;;;;;70.63;47.63;;;7.10;88.50;;;;;;5088037;28;20175;-80
2023/10/18 03:21:43;;;;;;;69.75;48.33;;;7.10;83.30;;;;;;5088507;28;20141;-80
2023/10/18 03:24:12;;;;;;;68.22;43.00;;;7.20;80.30;;;;;;5087772;28;20195;-80
2023/10/18 03:26:40;;;;;;;70.13;50.00;;;7.20;77.70;;;;;;5088051;28;20202;-79
2023/10/18 03:29:11;;;;;;;70.13;50.33;;;7.20;83.20;;;;;;5087709;28;20171;-80
2023/10/18 03:31:43;;;;;;;71.63;42.53;;;7.20;77.80;;;;;;5087838;28;20208;-80
2023/10/18 03:34:17;;;;;;;71.57;50.50;;;7.10;75.90;;;;;;5087999;28;20252;-80
2023/10/18 03:36:49;;;;;;;74.97;45.85;;;7.10;76.90;;;;;;5087649;28;20180;-79
2023/10/18 03:39:15;;;;;;;71.90;49.00;;;7.10;79.30;;;;;;5087862;28;20148;-80
2023/10/18 03:41:42;;;;;;;71.53;48.78;;;7.10;79.40;;;;;;5087823;28;20186;-79
2023/10/18 03:44:08;;;;;;;71.32;51.95;;;7.10;75.20;;;;;;5088060;28;20229;-80
2023/10/18 03:51:57;;;;;;;73.53;57.28;;;7.10;88.00;;;;;;5088496;28;20180;-79
2023/10/18 03:54:27;;;;;;;70.47;50.03;;;7.10;81.60;;;;;;5087432;28;20583;-80
2023/10/18 03:56:53;;;;;;;70.88;51.03;;;7.10;84.20;;;;;;5069515;28;20208;-80
2023/10/18 03:59:23;;;;;;;72.07;49.72;;;7.10;77.10;;;;;;5087249;28;20157;-79
2023/10/18 04:04:35;;;;;;;69.50;47.72;;;7.00;78.70;;;;;;5086378;28;20176;-79
2023/10/18 04:07:12;;;;;;;77.80;54.53;;;7.00;83.00;;;;;;5086038;28;20165;-79
2023/10/18 04:09:47;;;;;;;74.50;51.22;;;7.00;85.50;;;;;;5067715;28;20206;-79
2023/10/18 04:12:19;;;;;;;72.28;53.38;;;7.00;84.10;;;;;;5085507;28;20190;-79
2023/10/18 04:15:03;;;;;;;72.05;52.88;;;7.00;80.70;;;;;;5086226;28;20151;-80
2023/10/18 04:17:36;;;;;;;74.32;60.65;;;7.00;78.20;;;;;;5086219;28;20172;-80
2023/10/18 04:20:23;;;;;;;71.10;49.42;;;7.00;78.50;;;;;;5086566;28;20137;-79
2023/10/18 04:22:58;;;;;;;68.15;45.90;;;7.10;75.40;;;;;;5067798;28;20221;-79
2023/10/18 04:25:27;;;;;;;68.88;50.05;;;7.00;75.90;;;;;;5085557;28;20152;-79
2023/10/18 04:27:59;;;;;;;73.50;49.58;;;7.00;77.80;;;;;;5086195;28;20175;-80
2023/10/18 04:30:31;;;;;;;67.68;45.80;;;7.00;76.20;;;;;;5085389;28;20144;-79
2023/10/18 04:33:00;;;;;;;68.65;48.53;;;7.10;72.00;;;;;;5085340;28;20176;-79
2023/10/18 04:35:32;;;;;;;69.18;44.85;;;7.00;77.00;;;;;;5067723;28;20167;-80
2023/10/18 04:37:58;;;;;;;75.32;50.47;;;7.00;72.50;;;;;;5085444;28;20201;-79
2023/10/18 04:40:26;;;;;;;70.72;45.95;;;7.00;69.10;;;;;;5085353;28;20171;-79
2023/10/18 04:42:56;;;;;;;69.10;46.67;;;7.10;69.10;;;;;;5084743;28;20215;-79
2023/10/18 04:45:26;;;;;;;70.43;42.78;;;7.10;66.70;;;;;;5067643;28;20205;-79
2023/10/18 04:48:06;;;;;;;68.35;44.33;;;7.10;63.30;;;;;;5085696;28;20152;-80
2023/10/18 04:50:38;;;;;;;68.35;42.10;;;7.10;58.00;;;;;;5085941;28;20526;-79
2023/10/18 04:53:14;;;;;;;70.60;53.55;;;7.10;59.30;;;;;;5088075;28;20244;-80
2023/10/18 04:55:46;;;;;;;72.53;48.65;;;7.10;57.90;;;;;;5068812;28;20201;-80
2023/10/18 04:58:15;;;;;;;68.32;44.38;;;7.10;52.40;;;;;;5086908;28;20141;-80
2023/10/18 05:00:56;;;;;;;70.65;46.78;;;7.20;53.80;;;;;;5087158;28;20156;-80
2023/10/18 05:03:30;;;;;;;70.25;44.85;;;7.20;53.40;;;;;;5069386;28;20210;-79
2023/10/18 05:05:56;;;;;;;78.90;58.55;;;7.20;50.90;;;;;;5069143;28;20172;-79
2023/10/18 05:08:23;;;;;;;72.22;46.30;;;7.20;49.50;;;;;;5087357;28;20169;-80
2023/10/18 05:10:52;;;;;;;70.15;44.30;;;7.20;52.00;;;;;;5087106;28;20176;-80
2023/10/18 05:13:32;;;;;;;72.72;48.15;;;7.30;51.60;;;;;;5086607;28;20196;-80
2023/10/18 05:16:04;;;;;;;71.28;45.03;;;7.30;54.00;;;;;;5086592;28;20184;-80
2023/10/18 05:18:30;;;;;;;69.47;44.53;;;7.30;52.80;;;;;;5068680;28;20330;-79
2023/10/18 05:20:58;;;;;;;68.70;43.50;;;7.30;49.50;;;;;;5086706;28;20165;-80
2023/10/18 05:23:32;;;;;;;67.45;43.22;;;7.30;46.30;;;;;;5086284;28;20195;-79
2023/10/18 05:28:47;;;;;;;69.85;38.90;;;7.20;53.90;;;;;;5086073;28;20141;-80
2023/10/18 05:31:43;;;;;;;69.18;42.70;;;7.20;51.50;;;;;;5086415;28;20160;-79
2023/10/18 05:41:59;;;;;;;67.60;41.63;;;7.30;50.80;;;;;;5086207;28;20148;-79
2023/10/18 05:44:28;;;;;;;71.65;46.30;;;7.30;51.10;;;;;;5085018;28;20153;-79
2023/10/18 05:46:54;;;;;;;70.55;40.42;;;7.30;50.50;;;;;;5084825;28;20652;-79
2023/10/18 05:49:28;;;;;;;72.13;46.05;;;7.20;53.20;;;;;;5084738;28;20189;-79
2023/10/18 05:54:38;;;;;;;68.10;41.65;;;7.20;58.90;;;;;;5087855;28;20630;-78
2023/10/18 05:57:07;;;;;;;75.17;49.07;;;7.20;59.80;;;;;;5090094;28;20189;-79
2023/10/18 05:59:33;;;;;;;74.65;44.08;;;7.10;66.10;;;;;;5089790;28;20171;-79
2023/10/18 06:02:01;;;;;;;73.90;49.57;;;7.10;70.30;;;;;;5089213;28;20222;-78
2023/10/18 06:04:29;;;;;;;71.50;48.28;;;7.10;69.50;;;;;;5090079;28;20403;-79
2023/10/18 06:06:59;;;;;;;72.75;53.85;;;7.10;72.00;;;;;;5089796;28;20240;-79
2023/10/18 06:09:32;;;;;;;74.13;54.63;;;7.10;72.80;;;;;;5090081;28;20238;-79
2023/10/18 06:12:00;;;;;;;74.53;54.67;;;7.10;78.10;;;;;;5071379;28;20164;-78
2023/10/18 06:14:33;;;;;;;72.60;47.50;;;7.20;76.10;;;;;;5089941;28;20177;-79
2023/10/18 06:17:12;;;;;;;74.22;51.22;;;7.10;73.30;;;;;;5090135;28;20652;-79
2023/10/18 06:19:38;;;;;;;70.82;47.22;;;7.10;77.70;;;;;;5089469;28;20569;-78
2023/10/18 06:24:49;;;;;;;72.97;51.67;;;7.10;71.00;;;;;;5089977;28;20238;-78
2023/10/18 06:27:16;;;;;;;69.37;47.03;;;7.10;66.30;;;;;;5089871;28;20193;-78
2023/10/18 06:29:45;;;;;;;72.75;53.60;;;7.10;70.20;;;;;;5090544;28;20177;-79
2023/10/18 06:32:15;;;;;;;76.55;56.33;;;7.10;70.90;;;;;;5089234;28;20180;-78
2023/10/18 06:34:43;;;;;;;72.05;51.13;;;7.20;64.10;;;;;;5090285;28;20241;-79
2023/10/18 06:37:20;;;;;;;70.60;52.03;;;7.20;64.10;;;;;;5089146;28;20187;-79
2023/10/18 06:39:54;;;;;;;71.32;45.85;;;7.20;63.50;;;;;;5089513;28;20145;-79
2023/10/18 06:42:22;;;;;;;74.35;51.00;;;7.20;65.00;;;;;;5089248;28;20176;-79
2023/10/18 06:44:48;;;;;;;72.25;53.33;;;7.20;65.40;;;;;;5088889;28;20168;-79
2023/10/18 06:47:13;;;;;;;75.57;51.17;;;7.20;66.10;;;;;;5088863;28;20164;-79
2023/10/18 06:49:42;;;;;;;72.57;46.30;;;7.20;67.30;;;;;;5089261;28;20165;-79
2023/10/18 06:52:17;;;;;;;78.95;55.05;;;7.30;68.50;;;;;;5088844;28;20180;-78
2023/10/18 06:54:45;;;;;;;74.53;58.28;;;7.30;72.30;;;;;;5071872;28;20499;-78
2023/10/18 06:57:20;;;;;;;74.93;53.20;;;7.30;65.70;;;;;;5087720;28;20192;-78
2023/10/18 06:59:47;;;;;;;75.43;49.05;;;7.30;58.90;;;;;;5088788;28;20176;-78
2023/10/18 07:02:14;;;;;;;73.90;50.85;;;7.30;65.00;;;;;;5089334;28;20657;-78
2023/10/18 07:04:48;;;;;;;72.03;49.08;;;7.40;59.50;;;;;;5088331;28;20157;-78
2023/10/18 07:07:19;;;;;;;73.68;45.97;;;7.40;55.50;;;;;;5086629;28;20149;-79
2023/10/18 07:09:49;;;;;;;74.65;59.08;;;7.50;59.60;;;;;;5087585;28;20162;-79
2023/10/18 07:12:19;;;;;;;74.03;51.00;;;7.50;49.20;;;;;;5087419;28;20669;-78
2023/10/18 07:14:45;;;;;;;72.72;48.70;;;7.60;52.20;;;;;;5088263;28;20251;-78
2023/10/18 07:17:11;;;;;;;70.43;48.67;;;7.70;47.70;;;;;;5087699;28;20192;-79
2023/10/18 07:19:49;;;;;;;75.33;49.40;;;7.70;44.10;;;;;;5088142;28;20250;-79
2023/10/18 07:22:19;;;;;;;71.03;50.10;;;7.70;43.30;;;;;;5088537;28;20272;-79
2023/10/18 07:24:47;;;;;;;69.78;47.40;;;7.80;41.10;;;;;;5069543;28;20210;-78
2023/10/18 07:27:15;;;;;;;73.75;53.35;;;7.80;36.10;;;;;;5087959;28;20201;-78
2023/10/18 07:29:46;;;;;;;71.60;47.70;;;7.80;41.00;;;;;;5087557;28;20164;-78
2023/10/18 07:32:12;;;;;;;71.15;46.90;;;7.90;39.00;;;;;;5087184;28;20580;-78
2023/10/18 07:34:39;;;;;;;76.53;47.95;;;7.90;33.80;;;;;;5087241;28;20161;-78
2023/10/18 07:37:17;;;;;;;72.65;54.72;;;8.00;34.70;;;;;;5087831;28;20184;-79
2023/10/18 07:39:49;;;;;;;73.18;50.58;;;8.10;30.40;;;;;;5087277;28;20149;-78
2023/10/18 07:42:18;;;;;;;73.38;61.42;;;8.10;24.80;;;;;;5086925;28;20189;-78
2023/10/18 07:44:46;;;;;;;78.00;46.58;;;8.20;24.50;;;;;;5087812;28;20168;-79
2023/10/18 07:47:19;;;;;;;72.85;49.63;;;8.20;28.00;;;;;;5086482;28;20224;-78
2023/10/18 07:49:45;;;;;;;71.40;49.20;;;8.40;25.50;;;;;;5085936;28;20157;-78
2023/10/18 07:52:11;;;;;;;75.95;48.88;;;8.40;20.70;;;;;;5083799;28;20184;-78
2023/10/18 07:54:37;;;;;;;75.07;53.08;;;8.50;15.90;;;;;;5085042;28;20169;-78
2023/10/18 07:57:03;;;;;;;70.80;44.13;;;8.50;17.20;;;;;;5085843;28;20188;-78
2023/10/18 07:59:30;;;;;;;76.17;42.77;;;8.50;15.50;;;;;;5086071;28;20529;-78
2023/10/18 08:04:42;;;;;;;75.88;54.17;;;8.60;15.20;;;;;;5084400;28;20179;-78
2023/10/18 08:07:15;;;;;;;74.63;54.10;;;8.60;5.20;;;;;;5084786;28;20229;-78
2023/10/18 08:09:44;;;;;;;69.78;43.83;;;8.70;6.60;;;;;;5085093;28;20213;-78
2023/10/18 08:12:28;;;;;;;73.25;55.92;;;8.80;3.00;;;;;;5085311;28;20190;-79
2023/10/18 08:14:54;;;;;;;74.93;54.47;;;8.80;1.00;;;;;;5067687;28;20167;-78
2023/10/18 08:20:40;;;;;;;77.80;64.93;;;9.00;1.00;;;;;;5085540;28;20175;-78
2023/10/18 08:23:18;;;;;;;76.18;53.20;;;9.10;1.00;;;;;;5084259;28;20199;-78
2023/10/18 08:25:51;;;;;;;70.63;42.83;;;9.10;1.00;;;;;;5085096;28;20540;-78
2023/10/18 08:28:19;;;;;;;85.53;66.13;;;9.20;1.00;;;;;;5085040;28;20152;-79
2023/10/18 08:33:11;;;;;;;75.67;61.80;;;9.40;1.00;;;;;;5084408;28;20187;-78
2023/10/18 08:35:40;;;;;;;74.32;53.63;;;9.40;1.00;;;;;;5084136;28;20189;-77
2023/10/18 08:38:06;;;;;;;91.32;81.80;;;9.50;1.00;;;;;;5084345;28;20570;-78
2023/10/18 08:43:28;;;;;;;87.05;64.70;;;9.60;1.00;;;;;;5083114;28;20180;-78
2023/10/18 08:45:55;;;;;;;83.65;74.72;;;9.60;1.00;;;;;;5070380;28;20181;-78
2023/10/18 08:48:28;;;;;;;94.90;85.57;;;9.60;1.00;;;;;;5085296;28;20239;-78
2023/10/18 08:51:02;;;;;;;73.20;48.35;;;9.70;1.00;;;;;;5083574;28;20244;-78
2023/10/18 08:53:31;;;;;;;97.15;86.93;;;9.80;1.00;;;;;;5084211;28;20247;-79
2023/10/18 08:55:57;;;;;;;72.45;47.67;;;9.80;1.00;;;;;;5084182;28;20180;-78
2023/10/18 08:58:29;;;;;;;74.53;49.60;;;9.80;1.00;;;;;;5083299;28;20714;-78
2023/10/18 09:03:24;;;;;;;82.70;60.95;;;10.00;1.00;;;;;;5083728;28;20184;-78
2023/10/18 09:05:53;;;;;;;74.82;60.55;;;10.10;1.00;;;;;;5083485;28;20550;-78
2023/10/18 09:08:24;;;;;;;70.13;46.40;;;10.10;1.00;;;;;;5083464;28;20164;-78
2023/10/18 09:10:55;;;;;;;71.18;49.88;;;10.10;1.00;;;;;;5066417;28;20160;-79
2023/10/18 09:18:25;;;;;;;72.50;46.70;;;10.30;1.00;;;;;;5084167;28;20145;-78
2023/10/18 09:20:55;;;;;;;73.15;46.60;;;10.30;1.00;;;;;;5084505;28;20156;-78
2023/10/18 09:23:25;;;;;;;72.47;48.78;;;10.40;1.00;;;;;;5084425;28;20661;-78
2023/10/18 09:29:16;;;;;;;69.60;42.53;;;10.50;1.00;;;;;;5083161;28;20179;-78
2023/10/18 09:32:02;;;;;;;72.97;44.42;;;10.50;1.00;;;;;;5070441;28;20171;-78
2023/10/18 09:34:38;;;;;;;75.28;43.55;;;10.50;1.00;;;;;;5088221;28;20145;-78
2023/10/18 09:37:13;;;;;;;74.15;51.25;;;10.60;1.00;;;;;;5072185;28;20208;-78
2023/10/18 09:39:42;;;;;;;67.80;42.95;;;10.80;1.00;;;;;;5070392;28;20180;-79
2023/10/18 09:42:20;;;;;;;69.10;37.25;;;11.00;1.00;;;;;;5087312;28;20212;-78
2023/10/18 09:44:45;;;;;;;70.47;45.70;;;11.20;1.00;;;;;;5087173;28;20137;-78
2023/10/18 09:47:12;;;;;;;70.27;38.93;;;11.50;1.00;;;;;;5069317;28;20175;-78
2023/10/18 09:49:42;;;;;;;71.70;43.63;;;11.40;1.00;;;;;;5085395;28;20160;-78
2023/10/18 09:52:12;;;;;;;75.28;43.72;;;11.50;1.00;;;;;;5137679;22;20245;-78
2023/10/18 09:54:49;;;;;;;67.43;37.45;;;11.70;1.00;;;;;;5040124;28;20221;-78
2023/10/18 09:57:23;;;;;;;67.43;45.38;;;11.90;1.00;;;;;;5040593;28;20308;-78
2023/10/18 09:59:52;;;;;;;67.97;46.10;;;11.80;1.00;;;;;;5039784;28;20522;-78
2023/10/18 10:02:20;;;;;;;70.93;45.33;;;11.70;1.00;;;;;;5056898;28;20200;-78
2023/10/18 10:04:52;;;;;;;66.35;41.75;;;11.70;1.00;;;;;;5058084;28;20161;-78
2023/10/18 10:07:27;;;;;;;68.60;43.83;;;11.80;1.00;;;;;;5058107;28;20181;-78
2023/10/18 10:10:07;;;;;;;64.72;42.10;;;11.90;1.00;;;;;;5059221;28;20484;-78
2023/10/18 10:12:34;;;;;;;66.35;43.70;;;12.00;1.00;;;;;;5059998;28;20188;-78
2023/10/18 10:15:00;;;;;;;65.20;37.45;;;12.20;1.00;;;;;;5058368;28;20164;-78
2023/10/18 10:17:28;;;;;;;70.03;40.00;;;12.20;1.00;;;;;;5040285;28;20199;-78
2023/10/18 10:20:02;;;;;;;66.72;42.58;;;12.30;1.00;;;;;;5057770;28;20630;-78
2023/10/18 10:22:30;;;;;;;66.03;37.78;;;12.40;1.00;;;;;;5058081;28;20534;-79
2023/10/18 10:25:11;;;;;;;69.03;38.85;;;12.40;1.00;;;;;;5058146;28;20161;-78
2023/10/18 10:32:49;;;;;;;62.85;32.78;;;12.70;1.00;;;;;;5057590;28;20184;-79
2023/10/18 10:35:20;;;;;;;60.45;30.45;;;12.80;1.00;;;;;;5058360;28;20165;-79
2023/10/18 10:37:53;;;;;;;66.00;29.13;;;12.90;1.00;;;;;;5057598;28;20162;-78
2023/10/18 10:43:11;;;;;;;61.42;31.48;;;13.10;1.00;;;;;;5057911;28;20708;-78
2023/10/18 10:48:36;;;;;;;60.33;31.38;;;13.30;1.00;;;;;;5057689;28;20511;-79
2023/10/18 10:53:44;;;;;;;58.97;31.98;;;13.40;1.00;;;;;;5057333;28;20184;-78
2023/10/18 10:56:19;;;;;;;60.35;28.80;;;13.30;1.00;;;;;;5055462;28;20280;-78
2023/10/18 10:58:47;;;;;;;57.60;25.33;;;13.40;1.00;;;;;;5057466;28;20172;-78
2023/10/18 11:01:13;;;;;;;54.65;31.27;;;13.50;1.00;;;;;;5056979;28;20170;-78
2023/10/18 11:03:53;;;;;;;56.33;29.70;;;13.70;1.00;;;;;;5056582;28;20743;-78
2023/10/18 11:06:32;;;;;;;59.40;33.75;;;13.60;1.00;;;;;;5039126;28;20403;-78
2023/10/18 11:08:58;;;;;;;57.22;31.08;;;13.60;1.00;;;;;;5057722;28;20149;-78
2023/10/18 11:11:27;;;;;;;56.57;31.87;;;13.80;1.00;;;;;;5056633;28;20507;-78
2023/10/18 11:13:53;;;;;;;60.47;33.22;;;14.00;1.00;;;;;;5056415;28;20181;-78
2023/10/18 11:16:22;;;;;;;58.70;33.03;;;14.10;1.00;;;;;;5056493;28;20674;-78
2023/10/18 11:18:49;;;;;;;60.60;32.40;;;14.20;1.00;;;;;;5056494;28;20235;-78
2023/10/18 11:21:24;;;;;;;56.90;28.80;;;14.20;1.00;;;;;;5056631;28;20404;-78
2023/10/18 11:24:04;;;;;;;53.53;23.03;;;14.40;1.00;;;;;;5056870;28;20446;-78
2023/10/18 11:26:38;;;;;;;50.37;19.87;;;14.40;1.00;;;;;;5056601;28;20475;-78
2023/10/18 11:29:08;;;;;;;54.75;23.58;;;14.40;1.00;;;;;;5056527;28;20384;-78
2023/10/18 11:31:37;;;;;;;55.13;26.67;;;14.40;1.00;;;;;;5055087;28;20650;-78
2023/10/18 11:34:07;;;;;;;53.53;20.47;;;14.40;1.00;;;;;;5056299;28;20419;-78
2023/10/18 11:36:38;;;;;;;52.37;21.60;;;14.30;1.00;;;;;;5056069;28;20447;-78
2023/10/18 11:39:25;;;;;;;53.87;23.97;;;14.30;1.00;;;;;;5056375;28;20415;-78
2023/10/18 11:41:53;;;;;;;53.53;25.57;;;14.30;1.00;;;;;;5056676;28;20395;-78
2023/10/18 11:44:31;;;;;;;55.60;22.17;;;14.50;1.00;;;;;;5055300;28;20419;-78
2023/10/18 11:47:00;;;;;;;52.00;20.10;;;14.50;1.00;;;;;;5056794;28;20395;-78
2023/10/18 11:49:38;;;;;;;52.50;23.20;;;14.50;1.00;;;;;;5056615;28;20453;-78
2023/10/18 11:52:04;;;;;;;53.70;20.00;;;14.50;1.00;;;;;;5056143;28;20473;-78
2023/10/18 11:54:36;;;;;;;52.20;22.70;;;14.60;1.00;;;;;;5056242;28;20416;-78
2023/10/18 11:57:07;;;;;;;58.77;24.10;;;14.70;1.00;;;;;;5056743;28;20978;-78
2023/10/18 11:59:54;;;;;;;53.83;22.73;;;14.70;1.00;;;;;;5056825;28;20387;-78
2023/10/18 12:02:21;;;;;;;50.70;19.60;;;15.00;1.00;;;;;;5056874;28;20412;-78
2023/10/18 12:04:48;;;;;;;51.67;21.53;;;15.30;1.00;;;;;;5038415;28;20404;-79
2023/10/18 12:07:14;;;;;;;52.63;18.37;;;15.40;1.00;;;;;;5056895;28;20789;-79
2023/10/18 12:09:45;;;;;;;56.10;22.10;;;15.40;1.00;;;;;;5055021;28;20426;-78
2023/10/18 12:12:19;;;;;;;51.23;21.17;;;15.50;1.00;;;;;;5056237;28;20422;-79
2023/10/18 12:14:45;;;;;;;51.60;17.97;;;15.40;1.00;;;;;;5056143;28;20901;-79
2023/10/18 12:17:15;;;;;;;47.33;17.97;;;15.50;1.00;;;;;;5057229;28;20435;-78
2023/10/18 12:19:42;;;;;;;50.07;19.97;;;15.70;1.00;;;;;;5056429;28;20407;-79
2023/10/18 12:22:15;;;;;;;48.60;16.50;;;15.60;1.00;;;;;;5054724;28;20427;-78
2023/10/18 12:24:41;;;;;;;49.93;19.77;;;15.40;1.00;;;;;;5055971;28;20380;-79
2023/10/18 12:29:52;;;;;;;47.83;15.87;;;15.20;1.00;;;;;;5055659;28;20407;-78
2023/10/18 12:32:27;;;;;;;49.87;20.00;;;15.10;1.00;;;;;;5054851;28;20427;-78
2023/10/18 12:34:56;;;;;;;50.67;18.53;;;15.20;1.00;;;;;;5055986;28;20495;-78
2023/10/18 12:37:25;;;;;;;48.90;18.77;;;15.30;1.00;;;;;;5055641;28;20447;-79
2023/10/18 12:39:51;;;;;;;55.10;16.33;;;15.20;1.00;;;;;;5055947;28;20411;-78
2023/10/18 12:42:21;;;;;;;47.30;15.57;;;15.20;1.00;;;;;;5056229;28;20420;-79
2023/10/18 12:44:46;;;;;;;47.10;14.63;;;15.20;1.00;;;;;;5055814;28;20188;-78
2023/10/18 12:47:25;;;;;;;51.27;17.00;;;15.20;1.00;;;;;;5055264;28;20408;-78
2023/10/18 12:49:50;;;;;;;46.77;17.07;;;15.20;1.00;;;;;;5037754;28;20476;-79
2023/10/18 12:55:07;;;;;;;52.63;18.77;;;15.20;1.00;;;;;;5055388;28;20149;-78
2023/10/18 12:57:33;;;;;;;49.60;17.13;;;15.20;1.00;;;;;;5056167;28;20446;-78
2023/10/18 13:00:16;;;;;;;50.20;19.30;;;15.10;1.00;;;;;;5055779;28;20974;-78
2023/10/18 13:05:22;;;;;;;49.07;19.23;;;15.00;1.00;;;;;;5058854;28;20868;-78
2023/10/18 13:08:03;;;;;;;53.20;24.97;;;14.90;1.00;;;;;;5059739;28;20457;-78
2023/10/18 13:10:31;;;;;;;50.17;21.50;;;14.90;1.00;;;;;;5059498;28;20445;-78
2023/10/18 13:13:04;;;;;;;50.53;22.60;;;14.90;1.00;;;;;;5041580;28;20443;-79
2023/10/18 13:15:33;;;;;;;48.30;15.70;;;15.10;1.00;;;;;;5059449;28;20396;-78
2023/10/18 13:17:59;;;;;;;46.70;17.57;;;15.30;1.00;;;;;;5057789;28;20423;-78
2023/10/18 13:20:24;;;;;;;49.00;17.53;;;15.10;1.00;;;;;;5058929;28;20445;-78
2023/10/18 13:22:56;;;;;;;50.20;18.20;;;15.00;1.00;;;;;;5059057;28;20412;-78
2023/10/18 13:25:26;;;;;;;50.50;22.87;;;15.00;1.00;;;;;;5058470;28;20236;-78
2023/10/18 13:27:55;;;;;;;52.77;25.60;;;15.00;1.00;;;;;;5059496;28;20414;-79
2023/10/18 13:30:43;;;;;;;49.17;23.03;;;14.90;1.00;;;;;;5059989;28;20446;-78
2023/10/18 13:33:11;;;;;;;52.77;23.33;;;14.90;1.00;;;;;;5058863;28;20424;-78
2023/10/18 13:35:41;;;;;;;55.20;26.20;;;14.80;1.00;;;;;;5059279;28;20408;-78
2023/10/18 13:38:07;;;;;;;52.43;23.70;;;14.90;1.00;;;;;;5059530;28;20416;-78
2023/10/18 13:40:36;;;;;;;51.90;19.90;;;14.80;1.00;;;;;;5059243;28;20400;-78
2023/10/18 13:43:04;;;;;;;53.47;23.53;;;14.80;1.00;;;;;;5057957;28;20443;-78
2023/10/18 13:45:33;;;;;;;51.97;27.60;;;14.80;1.00;;;;;;5059411;28;20404;-78
2023/10/18 13:47:59;;;;;;;56.87;23.70;;;14.80;1.00;;;;;;5059035;28;20478;-78
2023/10/18 13:50:31;;;;;;;49.77;26.90;;;14.80;1.00;;;;;;5057955;28;20804;-78
2023/10/18 13:52:57;;;;;;;51.17;24.60;;;14.70;1.00;;;;;;5058914;28;20502;-78
2023/10/18 13:55:22;;;;;;;51.63;28.20;;;14.70;1.00;;;;;;5058997;28;20451;-78
2023/10/18 13:57:49;;;;;;;53.20;28.27;;;14.70;1.00;;;;;;5058611;28;20327;-78
2023/10/18 14:00:15;;;;;;;56.53;26.40;;;14.60;1.00;;;;;;5058431;28;20165;-78
2023/10/18 14:02:45;;;;;;;56.43;25.93;;;14.70;1.00;;;;;;5058613;28;20438;-78
2023/10/18 14:05:11;;;;;;;51.33;21.43;;;14.70;1.00;;;;;;5060153;28;20394;-78